Bloomingville, Ohio
Current Conditions -  °F | °C
As of 7:13 PM on Monday 20 Oct 2014 (Local Time) from KPCW Reporting Station
Light Rain Light Rain  
Wind Chill: 54°   Ceiling: 4100
Heat Index: 54°   Visibility: 4mi
Dew Point: 52°   Wind: 3mph
Humidity: 94%   Direction: 240°WSW
Pressure: 29.83"   Gusts: NA
Location:  41.4028°N, 82.7181°W
Report Text: KPCW 202313Z AUTO 24003KT 4SM -RA BR FEW028 SCT034 BKN041 12/11 A2983 RMK
Loading
Personal Weather Stations






























Interactive Weather Map
Tropical Storm Tracking
New forecast layout! Learn more

10-Day Weather Forecast

Advertisements
Track Severe Weather on mobile